Main page
METAR-TAF:

METAR-TAF

Airports :

Sania Ramel Airport

Tétouan, Morocco

latitude: 35-35N, longitude: 005-20W, elevation: 10 m

Current weather observation

The report was made 1 hour and 10 minutes ago, at 21:00 UTC
Wind 10 kt from the West, varying between Southwest and Northwest
Temperature 15°C
Humidity 72%
Pressure 1026 hPa
Visibility 10 km or more
Few clouds at a height of 2000 ft

METAR: GMTN 042100Z 26010KT 220V310 9999 FEW020 15/10 Q1026 NOSIG

Time: 23:10 (22:10 UTC)


TAF: missing

Weather observations and forecasts of more than 4000 airports (METAR and TAF reports).

The available stations are represented by yellow and red dots on the map.

Hover mouse over dot to see the name of the station.

Then click to see weather observations and forecasts.

To change the map : click on the green buttons with a black cross to zoom in, on the green button with a dash to zoom out, or on the green arrows for adjacent maps.


METAR-TAF: